M I D A S
Marine Information and Data Acquisition System
Tripno 1848 of the Zeeleeuw from 2010-03-24 07:33:29 to 2010-03-24 13:09:19
Back to CruiseResearch ActivitiesStationsMapUnderway DataData graphs

EquipmentUnitsComment
TimeDGPSUTC
LatitudeDGPSDM.mWGS84
LongitudeDGPSDM.mWGS84
TemperatureSBE03/SBE38deg celciusITS90
ConductivitySBE21S/mITS90
SalinitySBE21 Practical Salinity Units
ChlorophylAChelsea fluorimeterg/lCalibrated in Aceton
Missing or incorrect values are displayed as -999
Sea surface data collected by the RV Zeeleeuw from 2010-03-24 07:34:48 to 2010-03-24 13:20:32
Time Latitude Longitude Temperature Conductivity Salinity ChlorophylA
2010-03-24 07:35:53 51°13.662 2°55.962 15.6687 0.068141 0.375775 -1.139864
2010-03-24 07:36:53 51°13.662 2°55.962 15.6029 0.068141 0.375796 -1.139864
2010-03-24 07:37:53 51°13.663 2°55.953 15.5618 0.068141 0.375809 -1.139864
2010-03-24 07:38:57 51°13.68 2°55.884 15.5849 0.068141 0.375829 -1.139864
2010-03-24 07:39:57 51°13.695 2°55.779 15.6384 0.068141 0.375836 -1.139864
2010-03-24 07:40:55 51°13.704 2°55.742 15.765 0.068141 0.375971 -1.139864
2010-03-24 07:41:54 51°13.713 2°55.752 15.6774 0.068141 0.375903 -1.139864
2010-03-24 07:42:56 51°13.745 2°55.725 15.5705 0.068141 0.375917 -1.139864
2010-03-24 07:43:54 51°13.834 2°55.638 15.4161 0.068141 0.375923 -1.139864
2010-03-24 07:44:53 51°13.954 2°55.548 15.4279 0.068141 0.375944 -1.139864
2010-03-24 07:45:53 51°14.089 2°55.452 15.4874 0.068038 0.375371 -1.174688
2010-03-24 07:46:53 51°14.224 2°55.346 15.6101 0.068038 0.375377 -1.139864
2010-03-24 07:47:53 51°14.376 2°55.192 15.4851 0.068038 0.375391 -1.139864
2010-03-24 07:48:53 51°14.54 2°55.013 15.3868 0.068038 0.375404 -1.139864
2010-03-24 07:49:53 51°14.661 2°54.735 15.6423 0.068038 0.375418 -1.139864
2010-03-24 07:50:53 51°14.617 2°54.416 15.4331 0.068038 0.375424 -1.139864
2010-03-24 07:51:53 51°14.494 2°54.138 15.362 0.068038 0.375438 -1.139864
2010-03-24 07:52:53 51°14.372 2°53.859 15.3291 0.068038 0.375472 -1.139864
2010-03-24 07:53:53 51°14.243 2°53.584 15.3445 0.068038 0.375492 -1.139864
2010-03-24 07:54:53 51°14.115 2°53.306 15.4003 0.068038 0.375525 -1.139864
2010-03-24 07:55:53 51°13.997 2°53.018 15.3895 0.068038 0.375546 -1.139864
2010-03-24 07:56:53 51°13.889 2°52.72 15.2896 0.068038 0.375572 -1.139864
2010-03-24 07:57:53 51°13.781 2°52.421 15.3532 0.068038 0.375599 -1.139864
2010-03-24 07:58:53 51°13.672 2°52.121 15.364 0.068038 0.37564 -1.139864
2010-03-24 07:59:53 51°13.563 2°51.819 15.3613 0.068038 0.375667 -1.139864
2010-03-24 08:00:53 51°13.455 2°51.515 15.3865 0.068038 0.3757 -1.174688
2010-03-24 08:01:53 51°13.347 2°51.21 15.3828 0.068038 0.375741 -1.174688
2010-03-24 08:02:53 51°13.239 2°50.904 15.3852 0.068038 0.375768 -1.174688
2010-03-24 08:03:53 51°13.131 2°50.597 15.2833 0.068038 0.375801 -1.174688
2010-03-24 08:04:53 51°13.025 2°50.29 15.3578 0.068038 0.375835 -1.174688
2010-03-24 08:05:53 51°12.92 2°49.981 15.3476 0.068038 0.375862 -1.174688
2010-03-24 08:06:53 51°12.816 2°49.671 15.3244 0.068038 0.375889 -1.174688
2010-03-24 08:07:53 51°12.713 2°49.359 15.3032 0.068038 0.375916 -1.139864
2010-03-24 08:08:53 51°12.61 2°49.047 15.3363 0.068038 0.375943 -1.139864
2010-03-24 08:09:53 51°12.509 2°48.733 15.3517 0.068038 0.37597 -1.139864
2010-03-24 08:10:53 51°12.407 2°48.417 15.3958 0.068038 0.37599 -1.139864
2010-03-24 08:11:53 51°12.307 2°48.099 15.3477 0.068038 0.37601 -1.174688
2010-03-24 08:12:53 51°12.207 2°47.78 15.3667 0.068038 0.376037 -1.174688
2010-03-24 08:13:53 51°12.107 2°47.459 15.3576 0.068038 0.376051 -1.139864
2010-03-24 08:14:53 51°12.009 2°47.136 15.3151 0.068038 0.376071 -1.174688
2010-03-24 08:15:53 51°11.911 2°46.815 15.2729 0.068038 0.376091 -1.174688
2010-03-24 08:16:53 51°11.813 2°46.493 15.3539 0.068038 0.376118 -1.139864
2010-03-24 08:17:53 51°11.716 2°46.169 15.368 0.068038 0.376139 -1.174688
2010-03-24 08:18:53 51°11.62 2°45.843 15.4 0.068038 0.376159 -1.174688
2010-03-24 08:19:53 51°11.524 2°45.517 15.352 0.068038 0.376172 -1.139864
2010-03-24 08:20:53 51°11.431 2°45.19 15.3342 0.067935 0.375612 -1.139864
2010-03-24 08:21:53 51°11.338 2°44.861 15.3705 0.067935 0.375632 -1.174688
2010-03-24 08:22:53 51°11.245 2°44.533 15.3193 0.067935 0.375645 -1.139864
2010-03-24 08:23:53 51°11.154 2°44.204 15.3995 0.067935 0.375666 -1.174688
2010-03-24 08:24:53 51°11.063 2°43.873 15.4179 0.067935 0.375679 -1.139864
2010-03-24 08:25:53 51°10.973 2°43.543 15.2673 0.067935 0.375699 -1.174688
2010-03-24 08:26:53 51°10.9 2°43.202 15.4075 0.067935 0.37572 -1.174688
2010-03-24 08:27:53 51°10.829 2°42.86 15.3852 0.067935 0.37574 -1.174688
2010-03-24 08:28:53 51°10.758 2°42.516 15.3235 0.067935 0.375753 -1.139864
2010-03-24 08:29:53 51°10.687 2°42.172 15.3871 0.067935 0.375774 -1.174688
2010-03-24 08:30:53 51°10.617 2°41.829 15.4309 0.067935 0.375794 -1.174688
2010-03-24 08:31:53 51°10.547 2°41.487 15.4255 0.067935 0.375814 -1.174688
2010-03-24 08:32:53 51°10.478 2°41.147 15.3852 0.067935 0.375828 -1.139864
2010-03-24 08:33:53 51°10.409 2°40.806 15.4821 0.067935 0.375848 -1.174688
2010-03-24 08:34:53 51°10.34 2°40.465 15.4449 0.067935 0.375861 -1.174688
2010-03-24 08:35:53 51°10.272 2°40.122 15.3901 0.067935 0.375882 -1.174688
2010-03-24 08:36:53 51°10.203 2°39.779 15.5077 0.067935 0.375902 -1.174688
2010-03-24 08:37:53 51°10.12 2°39.446 15.4248 0.067935 0.375909 -1.174688
2010-03-24 08:38:53 51°10.034 2°39.111 15.4934 0.067935 0.375936 -1.174688
2010-03-24 08:39:53 51°9.948 2°38.776 15.4549 0.067935 0.375949 -1.174688
2010-03-24 08:40:53 51°9.863 2°38.439 15.4685 0.067935 0.375963 -1.174688
2010-03-24 08:41:53 51°9.777 2°38.101 15.4586 0.067935 0.375983 -1.174688
2010-03-24 08:42:53 51°9.691 2°37.763 15.4566 0.067935 0.376003 -1.174688
2010-03-24 08:43:53 51°9.606 2°37.422 15.5402 0.067935 0.376017 -1.174688
2010-03-24 08:44:53 51°9.519 2°37.084 15.5734 0.067935 0.376044 -1.174688
2010-03-24 08:45:53 51°9.416 2°36.757 15.5611 0.067935 0.376044 -1.174688
2010-03-24 08:46:53 51°9.311 2°36.43 15.5298 0.067935 0.376064 -1.174688
2010-03-24 08:47:53 51°9.206 2°36.103 15.5408 0.067935 0.376085 -1.174688
2010-03-24 08:48:53 51°9.101 2°35.778 15.514 0.067935 0.376098 -1.174688
2010-03-24 08:49:53 51°8.996 2°35.45 15.5247 0.067935 0.376118 -1.174688
2010-03-24 08:50:53 51°8.887 2°35.126 15.5071 0.067935 0.376139 -1.174688
2010-03-24 08:51:53 51°8.771 2°34.808 15.5566 0.067935 0.376159 -1.174688
2010-03-24 08:52:53 51°8.654 2°34.491 15.5545 0.067935 0.376179 -1.174688
2010-03-24 08:53:53 51°8.534 2°34.179 15.5068 0.067935 0.3762 -1.174688
2010-03-24 08:54:53 51°8.407 2°33.876 15.5949 0.067935 0.37622 -1.174688
2010-03-24 08:55:53 51°8.261 2°33.596 15.5611 0.067935 0.376233 -1.174688
2010-03-24 08:56:53 51°8.091 2°33.356 15.5941 0.067935 0.37624 -1.174688
2010-03-24 08:57:53 51°7.927 2°33.128 15.6673 0.067935 0.376274 -1.174688
2010-03-24 08:58:53 51°7.844 2°33.048 15.5724 0.067935 0.376274 -1.174688
2010-03-24 08:59:53 51°7.84 2°33.024 15.6706 0.067935 0.376315 -1.174688
2010-03-24 09:00:53 51°7.861 2°32.994 15.4802 0.067935 0.376315 -1.174688
2010-03-24 09:01:53 51°7.922 2°33.021 15.504 0.067935 0.376321 -1.174688
2010-03-24 09:02:53 51°7.943 2°33.142 15.5105 0.067935 0.376328 -1.174688
2010-03-24 09:03:53 51°7.95 2°33.194 15.54 0.067935 0.376369 -1.174688
2010-03-24 09:04:53 51°7.958 2°33.186 15.4455 0.067935 0.37641 -1.174688
2010-03-24 09:05:53 51°7.967 2°33.178 15.4719 0.067935 0.37641 -1.174688
2010-03-24 09:06:53 51°7.976 2°33.17 15.4921 0.067935 0.37643 -1.174688
2010-03-24 09:07:53 51°7.986 2°33.162 15.5039 0.067832 0.375868 -1.174688
2010-03-24 09:08:53 51°7.996 2°33.152 15.5149 0.067832 0.375895 -1.174688
2010-03-24 09:09:53 51°8.005 2°33.143 15.5367 0.067832 0.375929 -1.174688
2010-03-24 09:10:53 51°8.013 2°33.132 15.5506 0.067832 0.37597 -1.174688
2010-03-24 09:11:53 51°8.021 2°33.122 15.5584 0.067832 0.376003 -1.174688
2010-03-24 09:12:53 51°8.029 2°33.11 15.5756 0.067832 0.376037 -1.174688
2010-03-24 09:13:53 51°8.038 2°33.096 15.5923 0.067832 0.376071 -1.174688
2010-03-24 09:14:53 51°8.046 2°33.082 15.6133 0.067832 0.376105 -1.174688
2010-03-24 09:15:53 51°8.054 2°33.068 15.6316 0.067832 0.376132 -1.174688
2010-03-24 09:16:53 51°8.061 2°33.055 15.6504 0.067832 0.376166 -1.174688
2010-03-24 09:18:29 51°8.074 2°33.032 15.6783 0.067832 0.37622 -1.174688
2010-03-24 09:19:29 51°8.082 2°33.017 15.688 0.067832 0.376241 -1.174688
2010-03-24 09:20:29 51°8.088 2°33.002 15.7128 0.067832 0.376275 -1.174688
2010-03-24 09:21:29 51°8.096 2°32.987 15.726 0.067832 0.376309 -1.209513
2010-03-24 09:22:29 51°8.104 2°32.972 15.7362 0.067832 0.376336 -1.174688
2010-03-24 09:23:29 51°8.115 2°32.98 15.8071 0.067832 0.37637 -1.174688
2010-03-24 09:24:29 51°8.091 2°33.039 15.8199 0.067832 0.376417 -1.174688
2010-03-24 09:25:29 51°8.018 2°33.081 15.8347 0.067832 0.376438 -1.209513
2010-03-24 09:26:29 51°7.938 2°33.134 15.8514 0.067832 0.376465 -1.174688
2010-03-24 09:27:29 51°7.91 2°33.159 15.8635 0.067729 0.375909 -1.174688
2010-03-24 09:28:29 51°7.913 2°33.152 15.8567 0.067729 0.375922 -1.174688
2010-03-24 09:29:29 51°7.918 2°33.144 15.8702 0.067729 0.375943 -1.174688
2010-03-24 09:30:29 51°7.924 2°33.136 15.8842 0.067729 0.37597 -1.209513
2010-03-24 09:31:29 51°7.931 2°33.128 15.8954 0.067729 0.376004 -1.174688
2010-03-24 09:32:29 51°7.939 2°33.12 15.9034 0.067729 0.376038 -1.209513
2010-03-24 09:33:29 51°7.946 2°33.113 15.9189 0.067729 0.376072 -1.209513
2010-03-24 09:34:29 51°7.953 2°33.108 15.9347 0.067729 0.376106 -1.174688
2010-03-24 09:35:29 51°7.961 2°33.103 15.9505 0.067729 0.37614 -1.209513
2010-03-24 09:36:29 51°7.966 2°33.097 15.9641 0.067729 0.376174 -1.174688
2010-03-24 09:37:29 51°7.973 2°33.091 15.9788 0.067729 0.376208 -1.174688
2010-03-24 09:38:29 51°7.979 2°33.085 15.9863 0.067729 0.376235 -1.174688
2010-03-24 09:39:29 51°7.985 2°33.079 15.9911 0.067729 0.376262 -1.209513
2010-03-24 09:40:29 51°7.992 2°33.073 16.0152 0.067729 0.376289 -1.174688
2010-03-24 09:41:29 51°7.998 2°33.068 16.0413 0.067729 0.376316 -1.209513
2010-03-24 09:42:29 51°8.003 2°33.061 16.0556 0.067729 0.37635 -1.209513
2010-03-24 09:43:29 51°8.011 2°33.056 16.0572 0.067729 0.376378 -1.209513
2010-03-24 09:44:29 51°8.016 2°33.049 16.0718 0.067729 0.376412 -1.209513
2010-03-24 09:45:29 51°8.022 2°33.042 16.0921 0.067626 0.375855 -1.209513
2010-03-24 09:46:29 51°8.027 2°33.035 16.1123 0.067626 0.375889 -1.174688
2010-03-24 09:47:29 51°8.032 2°33.028 16.1207 0.067626 0.37593 -1.174688
2010-03-24 09:48:29 51°8.038 2°33.02 16.1136 0.067626 0.37597 -1.209513
2010-03-24 09:49:29 51°8.043 2°33.013 16.1457 0.067626 0.375998 -1.209513
2010-03-24 09:50:29 51°8.048 2°33.005 16.1618 0.067626 0.376038 -1.209513
2010-03-24 09:51:29 51°8.052 2°32.997 16.16 0.067626 0.376079 -1.209513
2010-03-24 09:52:29 51°8.058 2°32.99 16.1921 0.067626 0.376113 -1.209513
2010-03-24 09:53:29 51°8.064 2°32.982 16.2044 0.067626 0.376154 -1.209513
2010-03-24 09:54:29 51°8.07 2°32.973 16.1937 0.067626 0.376195 -1.209513
2010-03-24 09:55:29 51°8.077 2°32.963 16.2067 0.067626 0.376229 -1.209513
2010-03-24 09:56:29 51°8.084 2°32.952 16.2441 0.067626 0.37627 -1.209513
2010-03-24 09:57:29 51°8.09 2°32.955 16.1786 0.067626 0.376311 -1.209513
2010-03-24 09:58:29 51°8.064 2°32.995 16.2046 0.067626 0.376372 -1.209513
2010-03-24 09:59:29 51°7.978 2°33.029 16.2432 0.067524 0.375821 -1.209513
2010-03-24 10:00:29 51°7.896 2°33.138 16.2364 0.067524 0.375869 -1.209513
2010-03-24 10:01:29 51°7.89 2°33.182 16.2689 0.067524 0.37589 -1.209513
2010-03-24 10:02:29 51°7.895 2°33.176 16.2736 0.067524 0.375903 -1.209513
2010-03-24 10:03:29 51°7.902 2°33.168 16.288 0.067524 0.37593 -1.209513
2010-03-24 10:04:29 51°7.908 2°33.159 16.2935 0.067524 0.375978 -1.209513
2010-03-24 10:05:29 51°7.913 2°33.15 16.3187 0.067524 0.376026 -1.209513
2010-03-24 10:06:29 51°7.951 2°33.174 16.3361 0.067524 0.37608 -1.209513
2010-03-24 10:07:29 51°8.061 2°33.194 16.3234 0.067524 0.376094 -1.209513
2010-03-24 10:08:29 51°8.19 2°33.143 16.3066 0.067524 0.376121 -1.209513
2010-03-24 10:09:29 51°8.324 2°33.079 16.3249 0.067524 0.376149 -1.209513
2010-03-24 10:10:29 51°8.463 2°33.048 16.3378 0.067524 0.37619 -1.209513
2010-03-24 10:11:29 51°8.6 2°33.063 16.3659 0.067524 0.376231 -1.209513
2010-03-24 10:12:29 51°8.731 2°33.053 16.388 0.067421 0.375686 -1.209513
2010-03-24 10:13:29 51°8.8 2°33.005 16.3898 0.067421 0.375706 -1.209513
2010-03-24 10:14:29 51°8.815 2°32.985 16.4061 0.067421 0.375747 -1.209513
2010-03-24 10:15:29 51°8.818 2°32.964 16.4124 0.067421 0.375781 -1.209513
2010-03-24 10:16:29 51°8.823 2°32.943 16.4183 0.067421 0.375809 -1.209513
2010-03-24 10:17:29 51°8.828 2°32.923 16.4295 0.067421 0.375843 -1.209513
2010-03-24 10:18:29 51°8.833 2°32.903 16.4374 0.067421 0.375877 -1.209513
2010-03-24 10:19:29 51°8.838 2°32.884 16.4508 0.067421 0.375911 -1.209513
2010-03-24 10:20:29 51°8.843 2°32.864 16.4463 0.067421 0.375945 -1.209513
2010-03-24 10:21:29 51°8.848 2°32.844 16.4751 0.067421 0.375979 -1.209513
2010-03-24 10:22:29 51°8.853 2°32.823 16.4724 0.067421 0.376014 -1.209513
2010-03-24 10:23:29 51°8.859 2°32.802 16.4944 0.067421 0.376041 -1.209513
2010-03-24 10:24:29 51°8.865 2°32.78 16.4912 0.067421 0.376068 -1.209513
2010-03-24 10:25:29 51°8.875 2°32.796 16.4813 0.067421 0.376096 -1.209513
2010-03-24 10:26:29 51°8.902 2°32.913 16.476 0.067421 0.37613 -1.209513
2010-03-24 10:27:29 51°8.929 2°33.021 16.4886 0.067318 0.375571 -1.209513
2010-03-24 10:28:29 51°8.935 2°33.055 16.5182 0.067318 0.375612 -1.209513
2010-03-24 10:29:29 51°8.941 2°33.038 16.5188 0.067318 0.375646 -1.209513
2010-03-24 10:30:29 51°8.947 2°33.026 16.5222 0.067318 0.37568 -1.209513
2010-03-24 10:31:29 51°8.954 2°33.081 16.5268 0.067318 0.375707 -1.209513
2010-03-24 10:32:29 51°8.945 2°33.214 16.5403 0.067318 0.375748 -1.209513
2010-03-24 10:33:29 51°8.92 2°33.414 16.5515 0.067318 0.375789 -1.209513
2010-03-24 10:34:29 51°8.918 2°33.654 16.5566 0.067318 0.375824 -1.209513
2010-03-24 10:35:29 51°8.895 2°33.917 16.5711 0.067318 0.375865 -1.209513
2010-03-24 10:36:29 51°8.882 2°34.155 16.585 0.067318 0.375912 -1.209513
2010-03-24 10:37:29 51°8.894 2°34.256 16.59 0.067318 0.375947 -1.209513
2010-03-24 10:38:29 51°8.898 2°34.247 16.5529 0.067318 0.37596 -1.209513
2010-03-24 10:39:29 51°8.902 2°34.226 16.563 0.067318 0.375995 -1.209513
2010-03-24 10:40:29 51°8.908 2°34.205 16.5741 0.067318 0.376036 -1.209513
2010-03-24 10:41:29 51°8.914 2°34.186 16.5848 0.067318 0.37607 -1.209513
2010-03-24 10:42:29 51°8.919 2°34.168 16.5895 0.067215 0.375517 -1.244337
2010-03-24 10:43:29 51°8.922 2°34.15 16.5995 0.067215 0.375551 -1.209513
2010-03-24 10:44:29 51°8.925 2°34.133 16.6057 0.067215 0.375579 -1.244337
2010-03-24 10:45:29 51°8.927 2°34.115 16.6156 0.067215 0.375606 -1.209513
2010-03-24 10:46:29 51°8.93 2°34.097 16.6199 0.067215 0.375633 -1.244337
2010-03-24 10:47:29 51°8.932 2°34.079 16.6273 0.067215 0.375668 -1.244337
2010-03-24 10:48:29 51°8.934 2°34.06 16.6353 0.067215 0.375695 -1.244337
2010-03-24 10:49:29 51°8.936 2°34.041 16.6463 0.067215 0.375729 -1.244337
2010-03-24 10:50:29 51°8.938 2°34.021 16.6527 0.067215 0.375763 -1.244337
2010-03-24 10:51:29 51°8.941 2°34.001 16.6595 0.067215 0.375798 -1.209513
2010-03-24 10:52:29 51°8.943 2°33.98 16.6693 0.067215 0.375832 -1.244337
2010-03-24 10:53:29 51°8.94 2°33.998 16.7077 0.067215 0.375853 -1.244337
2010-03-24 10:54:29 51°8.874 2°34.153 16.7382 0.067215 0.375894 -1.244337
2010-03-24 10:55:29 51°8.764 2°34.375 16.7242 0.067215 0.375942 -1.244337
2010-03-24 10:56:29 51°8.65 2°34.606 16.7333 0.067215 0.375976 -1.244337
2010-03-24 10:57:29 51°8.567 2°34.795 16.4914 0.067112 0.375443 -1.244337
2010-03-24 10:58:29 51°8.595 2°34.873 16.5278 0.067112 0.37545 -1.244337
2010-03-24 10:59:29 51°8.648 2°34.868 16.5946 0.067112 0.375463 -1.244337
2010-03-24 11:00:29 51°8.73 2°34.853 16.6945 0.067112 0.375491 -1.244337
2010-03-24 11:01:29 51°8.808 2°34.897 16.7379 0.067112 0.375546 -1.244337
2010-03-24 11:02:29 51°8.844 2°34.992 16.7072 0.067112 0.375566 -1.209513
2010-03-24 11:03:29 51°8.86 2°35.072 16.7095 0.067112 0.375594 -1.244337
2010-03-24 11:04:29 51°8.869 2°35.136 16.7106 0.067112 0.375621 -1.244337
2010-03-24 11:05:29 51°8.873 2°35.19 16.6838 0.067112 0.375655 -1.209513
2010-03-24 11:06:29 51°8.871 2°35.239 16.6938 0.067112 0.37569 -1.209513
2010-03-24 11:07:29 51°8.865 2°35.293 16.7015 0.067112 0.375717 -1.244337
2010-03-24 11:08:29 51°8.861 2°35.349 16.7083 0.067112 0.375758 -1.244337
2010-03-24 11:09:29 51°8.865 2°35.406 16.7185 0.067112 0.375793 -1.244337
2010-03-24 11:10:29 51°8.871 2°35.463 16.7243 0.067112 0.375827 -1.244337
2010-03-24 11:11:29 51°8.878 2°35.52 16.7332 0.067112 0.375861 -1.244337
2010-03-24 11:12:29 51°8.884 2°35.577 16.7416 0.067112 0.375896 -1.244337
2010-03-24 11:13:29 51°8.891 2°35.635 16.7501 0.067009 0.375335 -1.244337
2010-03-24 11:14:29 51°8.899 2°35.692 16.76 0.067009 0.375369 -1.244337
2010-03-24 11:15:29 51°8.916 2°35.745 16.7677 0.067009 0.375403 -1.244337
2010-03-24 11:16:29 51°8.934 2°35.797 16.7731 0.067009 0.375437 -1.244337
2010-03-24 11:17:29 51°8.952 2°35.85 16.7809 0.067009 0.375479 -1.244337
2010-03-24 11:18:29 51°8.97 2°35.904 16.7886 0.067009 0.375513 -1.244337
2010-03-24 11:19:29 51°8.987 2°35.956 16.7968 0.067009 0.375547 -1.244337
2010-03-24 11:20:29 51°9.006 2°36.008 16.8041 0.067009 0.375582 -1.244337
2010-03-24 11:21:29 51°9.025 2°36.059 16.8132 0.067009 0.375609 -1.244337
2010-03-24 11:22:29 51°9.039 2°36.11 16.8174 0.067009 0.375643 -1.279161
2010-03-24 11:23:29 51°9.052 2°36.163 16.8287 0.067009 0.375685 -1.244337
2010-03-24 11:24:29 51°9.068 2°36.215 16.8385 0.067009 0.375712 -1.244337
2010-03-24 11:25:29 51°9.086 2°36.266 16.8407 0.067009 0.37574 -1.244337
2010-03-24 11:26:29 51°9.105 2°36.316 16.85 0.067009 0.375774 -1.244337
2010-03-24 11:27:29 51°9.121 2°36.366 16.8583 0.067009 0.375808 -1.244337
2010-03-24 11:28:29 51°9.131 2°36.417 16.871 0.066906 0.37524 -1.244337
2010-03-24 11:29:29 51°9.128 2°36.464 16.8763 0.066906 0.375274 -1.244337
2010-03-24 11:30:29 51°9.126 2°36.511 16.8823 0.066906 0.375308 -1.244337
2010-03-24 11:31:29 51°9.121 2°36.546 16.894 0.066906 0.375336 -1.244337
2010-03-24 11:32:29 51°9.114 2°36.563 16.9041 0.066906 0.375363 -1.244337
2010-03-24 11:33:29 51°9.095 2°36.573 16.9162 0.066906 0.375405 -1.244337
2010-03-24 11:34:29 51°9.081 2°36.565 16.9209 0.066906 0.375446 -1.244337
2010-03-24 11:35:29 51°9.074 2°36.546 16.9214 0.066906 0.375473 -1.244337
2010-03-24 11:36:29 51°9.072 2°36.526 16.9244 0.066906 0.375501 -1.244337
2010-03-24 11:37:29 51°9.046 2°36.532 16.9277 0.066906 0.375542 -1.244337
2010-03-24 11:38:29 51°8.989 2°36.465 17.0015 0.066906 0.375604 -1.244337
2010-03-24 11:39:29 51°9.017 2°36.322 17.0078 0.066906 0.375618 -1.244337
2010-03-24 11:40:29 51°9.087 2°36.335 17.0143 0.066906 0.375632 -1.244337
2010-03-24 11:41:29 51°9.106 2°36.383 16.9192 0.066906 0.375652 -1.244337
2010-03-24 11:42:29 51°9.114 2°36.403 16.9065 0.066906 0.375694 -1.244337
2010-03-24 11:43:29 51°9.119 2°36.406 16.9065 0.066906 0.375728 -1.244337
2010-03-24 11:44:29 51°9.122 2°36.398 16.9077 0.066906 0.375756 -1.244337
2010-03-24 11:45:29 51°9.125 2°36.382 16.921 0.066803 0.375186 -1.244337
2010-03-24 11:46:29 51°9.128 2°36.362 16.9207 0.066803 0.375221 -1.244337
2010-03-24 11:47:29 51°9.13 2°36.338 16.93 0.066803 0.375248 -1.244337
2010-03-24 11:48:29 51°9.132 2°36.311 16.9363 0.066803 0.375276 -1.244337
2010-03-24 11:49:29 51°9.134 2°36.285 16.9477 0.066803 0.375296 -1.244337
2010-03-24 11:50:29 51°9.133 2°36.321 17.0052 0.066803 0.375331 -1.244337
2010-03-24 11:51:29 51°9.11 2°36.485 17.0987 0.066803 0.375365 -1.244337
2010-03-24 11:52:29 51°9.11 2°36.745 17.0783 0.066803 0.3754 -1.244337
2010-03-24 11:53:29 51°9.151 2°37.015 17.0825 0.066803 0.375407 -1.244337
2010-03-24 11:54:29 51°9.197 2°37.307 17.0818 0.066803 0.375427 -1.244337
2010-03-24 11:55:29 51°9.239 2°37.606 17.0868 0.066803 0.375455 -1.244337
2010-03-24 11:56:29 51°9.279 2°37.906 17.092 0.066803 0.375475 -1.244337
2010-03-24 11:57:29 51°9.333 2°38.199 17.0999 0.066803 0.375496 -1.279161
2010-03-24 11:58:29 51°9.415 2°38.48 17.1011 0.066803 0.375517 -1.244337
2010-03-24 11:59:29 51°9.494 2°38.762 17.1066 0.066803 0.375538 -1.244337
2010-03-24 12:00:29 51°9.573 2°39.044 17.1103 0.066803 0.375565 -1.244337
2010-03-24 12:01:29 51°9.653 2°39.324 17.1154 0.066803 0.375586 -1.244337
2010-03-24 12:02:29 51°9.73 2°39.608 17.1229 0.066803 0.375613 -1.244337
2010-03-24 12:03:29 51°9.807 2°39.893 17.1253 0.066803 0.375634 -1.244337
2010-03-24 12:04:29 51°9.885 2°40.177 17.1305 0.066803 0.375662 -1.244337
2010-03-24 12:05:29 51°9.963 2°40.462 17.1367 0.066803 0.375696 -1.244337
2010-03-24 12:06:29 51°10.041 2°40.747 17.1424 0.0667 0.375126 -1.244337
2010-03-24 12:07:29 51°10.118 2°41.032 17.1466 0.0667 0.375153 -1.244337
2010-03-24 12:08:29 51°10.194 2°41.318 17.1496 0.0667 0.375181 -1.244337
2010-03-24 12:09:29 51°10.27 2°41.603 17.1508 0.0667 0.375209 -1.279161
2010-03-24 12:10:29 51°10.345 2°41.889 17.1562 0.0667 0.375236 -1.244337
2010-03-24 12:11:29 51°10.421 2°42.177 17.1678 0.0667 0.375257 -1.244337
2010-03-24 12:12:29 51°10.497 2°42.465 17.1654 0.0667 0.375285 -1.244337
2010-03-24 12:13:29 51°10.573 2°42.753 17.1753 0.0667 0.375305 -1.244337
2010-03-24 12:14:29 51°10.648 2°43.041 17.173 0.0667 0.375333 -1.244337
2010-03-24 12:15:29 51°10.721 2°43.328 17.1909 0.0667 0.37536 -1.244337
2010-03-24 12:16:29 51°10.797 2°43.616 17.1954 0.0667 0.375381 -1.244337
2010-03-24 12:17:29 51°10.877 2°43.92 17.1995 0.0667 0.375416 -1.244337
2010-03-24 12:18:29 51°10.959 2°44.23 17.209 0.0667 0.375443 -1.244337
2010-03-24 12:19:29 51°11.041 2°44.54 17.2086 0.0667 0.375471 -1.279161
2010-03-24 12:20:29 51°11.121 2°44.85 17.2181 0.0667 0.375499 -1.279161
2010-03-24 12:21:29 51°11.2 2°45.16 17.2308 0.0667 0.375533 -1.244337
2010-03-24 12:22:29 51°11.28 2°45.47 17.2258 0.0667 0.375554 -1.279161
2010-03-24 12:23:29 51°11.36 2°45.78 17.2302 0.0667 0.375581 -1.244337
2010-03-24 12:24:29 51°11.441 2°46.089 17.2386 0.0667 0.375609 -1.244337
2010-03-24 12:25:29 51°11.523 2°46.399 17.2484 0.0667 0.375637 -1.244337
2010-03-24 12:26:29 51°11.603 2°46.707 17.2563 0.066597 0.375059 -1.279161
2010-03-24 12:27:29 51°11.695 2°47.007 17.2506 0.066597 0.375086 -1.279161
2010-03-24 12:28:29 51°11.792 2°47.303 17.2769 0.066597 0.375073 -1.279161
2010-03-24 12:29:29 51°11.916 2°47.575 17.2779 0.066597 0.375176 -1.279161
2010-03-24 12:30:29 51°12.042 2°47.846 17.2825 0.066597 0.375142 -1.279161
2010-03-24 12:31:29 51°12.166 2°48.119 17.2885 0.066597 0.375176 -1.244337
2010-03-24 12:32:29 51°12.29 2°48.391 17.2987 0.066597 0.375204 -1.279161
2010-03-24 12:33:29 51°12.412 2°48.664 17.3034 0.066597 0.375225 -1.244337
2010-03-24 12:34:29 51°12.533 2°48.935 17.3142 0.066597 0.375252 -1.244337
2010-03-24 12:35:29 51°12.654 2°49.207 17.3191 0.066597 0.37528 -1.279161
2010-03-24 12:36:29 51°12.774 2°49.479 17.3231 0.066597 0.375301 -1.279161
2010-03-24 12:37:29 51°12.896 2°49.749 17.3252 0.066597 0.375321 -1.279161
2010-03-24 12:38:29 51°13.017 2°50.02 17.3342 0.066597 0.375342 -1.244337
2010-03-24 12:39:29 51°13.14 2°50.289 17.3455 0.066597 0.375377 -1.244337
2010-03-24 12:40:29 51°13.262 2°50.559 17.3456 0.066597 0.375397 -1.244337
2010-03-24 12:41:29 51°13.371 2°50.803 17.3613 0.066597 0.375425 -1.279161
2010-03-24 12:42:29 51°13.433 2°50.948 17.3671 0.066597 0.375453 -1.279161
2010-03-24 12:43:29 51°13.464 2°51.032 17.378 0.066597 0.375467 -1.279161
2010-03-24 12:44:29 51°13.468 2°51.046 17.3807 0.066597 0.375494 -1.279161
2010-03-24 12:45:30 51°13.467 2°50.989 17.4003 0.066597 0.375522 -1.279161
2010-03-24 12:46:29 51°13.46 2°50.942 17.4146 0.066597 0.375543 -1.279161
2010-03-24 12:47:29 51°13.457 2°50.91 17.4139 0.066597 0.375557 -1.279161
2010-03-24 12:48:29 51°13.457 2°50.889 17.4148 0.066495 0.374971 -1.279161
2010-03-24 12:49:29 51°13.458 2°50.885 17.4134 0.066495 0.374992 -1.279161
2010-03-24 12:50:29 51°13.474 2°51.011 17.4271 0.066495 0.375012 -1.279161
2010-03-24 12:51:29 51°13.536 2°51.24 17.434 0.066495 0.375019 -1.279161
2010-03-24 12:52:29 51°13.601 2°51.483 17.4368 0.066495 0.375033 -1.279161
2010-03-24 12:53:29 51°13.673 2°51.723 17.4411 0.066495 0.375054 -1.279161
2010-03-24 12:54:29 51°13.753 2°51.956 17.448 0.066495 0.375068 -1.279161
2010-03-24 12:55:29 51°13.845 2°52.18 17.4526 0.066495 0.375089 -1.279161
2010-03-24 12:56:29 51°13.919 2°52.42 17.4621 0.066495 0.375102 -1.279161
2010-03-24 12:57:29 51°13.961 2°52.679 17.472 0.066495 0.37513 -1.279161
2010-03-24 12:58:29 51°14.019 2°52.928 17.4711 0.066495 0.375144 -1.279161
2010-03-24 12:59:29 51°14.089 2°53.169 17.4814 0.066495 0.375165 -1.279161
2010-03-24 13:00:29 51°14.175 2°53.399 17.4864 0.066495 0.375185 -1.279161
2010-03-24 13:01:29 51°14.261 2°53.631 17.49 0.066495 0.375206 -1.279161
2010-03-24 13:02:29 51°14.348 2°53.866 17.4949 0.066495 0.37522 -1.279161
2010-03-24 13:03:29 51°14.435 2°54.101 17.5001 0.066495 0.375241 -1.279161
2010-03-24 13:04:29 51°14.517 2°54.332 17.5072 0.066495 0.375255 -1.279161
2010-03-24 13:05:29 51°14.579 2°54.553 17.5092 0.066495 0.375275 -1.279161
2010-03-24 13:06:29 51°14.6 2°54.783 17.524 0.066495 0.375296 -1.279161
2010-03-24 13:07:29 51°14.527 2°54.986 17.5256 0.066495 0.375317 -1.279161
2010-03-24 13:08:29 51°14.408 2°55.122 17.5488 0.066495 0.375338 -1.279161
2010-03-24 13:09:29 51°14.313 2°55.231 17.554 0.066495 0.375359 -1.279161
2010-03-24 13:10:29 51°14.228 2°55.327 17.5518 0.066495 0.375372 -1.279161
2010-03-24 13:11:29 51°14.146 2°55.403 17.5573 0.066495 0.375386 -1.279161
2010-03-24 13:12:29 51°14.063 2°55.462 8.7425 0.066495 0.375407 -1.10504
2010-03-24 13:13:29 51°13.98 2°55.525 13.3964 0.066495 0.375414 -1.10504
2010-03-24 13:14:29 51°13.895 2°55.586 13.9622 0.066495 0.375428 -1.10504
2010-03-24 13:15:29 51°13.812 2°55.647 13.9788 0.066495 0.375435 -1.10504
2010-03-24 13:16:29 51°13.755 2°55.718 13.747 0.066495 0.375449 -1.10504
2010-03-24 13:17:29 51°13.724 2°55.785 13.7846 0.066495 0.375449 -1.139864
2010-03-24 13:18:29 51°13.692 2°55.86 13.8288 0.066495 0.375456 -1.139864
2010-03-24 13:19:29 51°13.665 2°55.944 14.5494 0.066495 0.37547 -1.139864
2010-03-24 13:20:29 51°13.662 2°55.958 14.5235 0.066495 0.37547 -1.313985